createdAt,value
2018-07-10T00:02:28.887Z,57.40
2018-07-10T00:07:12.366Z,57.30
2018-07-10T00:10:34.411Z,56.90
2018-07-10T00:13:01.720Z,56.90
2018-07-10T00:15:28.891Z,56.30
2018-07-10T00:17:56.101Z,56.60
2018-07-10T00:20:23.309Z,56.90
2018-07-10T00:22:50.971Z,56.90
2018-07-10T00:25:18.167Z,57.00
2018-07-10T00:27:45.389Z,57.30
2018-07-10T00:30:12.596Z,57.60
2018-07-10T00:32:39.914Z,57.50
2018-07-10T00:35:07.137Z,57.90
2018-07-10T00:37:34.351Z,57.70
2018-07-10T00:40:01.541Z,58.30
2018-07-10T00:42:28.751Z,58.90
2018-07-10T00:44:55.977Z,58.60
2018-07-10T00:47:23.187Z,59.20
2018-07-10T00:49:50.405Z,59.70
2018-07-10T00:52:29.304Z,59.80
2018-07-10T00:54:56.842Z,59.70
2018-07-10T00:57:24.071Z,59.20
2018-07-10T00:59:51.287Z,58.60
2018-07-10T01:02:18.499Z,57.90
2018-07-10T01:04:45.718Z,58.00
2018-07-10T01:07:12.918Z,57.80
2018-07-10T01:09:40.165Z,57.80
2018-07-10T01:12:07.296Z,58.20
2018-07-10T01:14:34.530Z,58.40
2018-07-10T01:17:01.750Z,58.60
2018-07-10T01:19:28.967Z,59.30
2018-07-10T01:21:56.357Z,59.00
2018-07-10T01:24:23.572Z,59.00
2018-07-10T01:26:50.788Z,59.20
2018-07-10T01:29:23.750Z,59.80
2018-07-10T01:31:52.421Z,60.10
2018-07-10T01:34:19.858Z,60.20
2018-07-10T01:36:47.068Z,60.00
2018-07-10T01:39:14.440Z,60.00
2018-07-10T01:41:41.662Z,60.00
2018-07-10T01:44:08.863Z,59.80
2018-07-10T01:46:36.075Z,60.60
2018-07-10T01:49:03.538Z,60.90
2018-07-10T01:51:31.623Z,61.20
2018-07-10T01:53:58.829Z,61.50
2018-07-10T01:56:26.070Z,61.70
2018-07-10T01:58:53.283Z,61.70
2018-07-10T02:01:20.503Z,61.90
2018-07-10T02:03:47.709Z,62.40
2018-07-10T02:06:14.945Z,61.80
2018-07-10T02:08:42.255Z,61.30
2018-07-10T02:11:09.477Z,61.40
2018-07-10T02:13:36.709Z,61.70
2018-07-10T02:16:03.914Z,61.70
2018-07-10T02:18:31.153Z,61.60
2018-07-10T02:21:02.192Z,61.70
2018-07-10T02:23:34.983Z,61.70
2018-07-10T02:26:02.853Z,61.90
2018-07-10T02:28:30.040Z,62.70
2018-07-10T02:30:57.714Z,62.00
2018-07-10T02:33:24.934Z,62.30
2018-07-10T02:35:52.147Z,62.80
2018-07-10T02:38:19.361Z,62.30
2018-07-10T02:40:46.874Z,62.00
2018-07-10T02:43:14.232Z,62.80
2018-07-10T02:45:41.447Z,63.10
2018-07-10T02:48:08.662Z,63.30
2018-07-10T02:50:36.029Z,63.70
2018-07-10T02:53:03.248Z,63.30
2018-07-10T02:55:30.829Z,63.20
2018-07-10T02:57:58.029Z,63.00
2018-07-10T03:00:25.390Z,63.20
2018-07-10T03:02:52.601Z,63.70
2018-07-10T03:05:20.230Z,63.70
2018-07-10T03:07:47.792Z,64.10
2018-07-10T03:10:15.005Z,64.40
2018-07-10T03:12:42.227Z,64.20
2018-07-10T03:15:12.258Z,64.50
2018-07-10T03:17:39.539Z,65.40
2018-07-10T03:20:07.401Z,66.00
2018-07-10T03:22:35.032Z,65.90
2018-07-10T03:25:02.322Z,66.20
2018-07-10T03:27:29.726Z,65.80
2018-07-10T03:29:58.013Z,65.80
2018-07-10T03:32:25.236Z,66.10
2018-07-10T03:34:52.462Z,66.60
2018-07-10T03:37:19.668Z,66.90
2018-07-10T03:39:46.890Z,66.50
2018-07-10T03:44:43.570Z,66.30
2018-07-10T03:49:38.420Z,66.40
2018-07-10T03:52:05.665Z,66.10
2018-07-10T03:54:33.810Z,66.80
2018-07-10T03:57:02.702Z,66.40
2018-07-10T03:59:32.503Z,66.60
2018-07-10T04:01:59.758Z,66.40
2018-07-10T04:06:54.201Z,66.20
2018-07-10T04:09:21.414Z,66.10
2018-07-10T04:11:48.950Z,65.50
2018-07-10T04:14:17.980Z,65.70
2018-07-10T04:16:45.679Z,66.00
2018-07-10T04:19:14.041Z,66.50
2018-07-10T04:21:42.649Z,66.60
2018-07-10T04:24:17.693Z,66.60
2018-07-10T04:27:27.148Z,66.10
2018-07-10T04:30:01.774Z,66.20
2018-07-10T04:32:29.000Z,66.40
2018-07-10T04:34:56.216Z,66.20
2018-07-10T04:37:23.426Z,65.30
2018-07-10T04:39:50.625Z,65.20
2018-07-10T04:42:19.058Z,65.40
2018-07-10T04:44:53.277Z,64.90
2018-07-10T04:47:24.516Z,65.60
2018-07-10T04:49:56.267Z,65.30
2018-07-10T04:52:27.204Z,65.70
2018-07-10T04:55:09.196Z,65.50
2018-07-10T04:57:40.647Z,65.70
2018-07-10T05:00:07.880Z,65.40
2018-07-10T05:02:35.203Z,66.10
2018-07-10T05:05:02.460Z,65.30
2018-07-10T05:07:29.668Z,65.20
2018-07-10T05:09:56.894Z,65.50
2018-07-10T05:12:24.135Z,65.70
2018-07-10T05:14:51.819Z,65.30
2018-07-10T05:17:19.030Z,65.20
2018-07-10T05:19:46.509Z,64.80
2018-07-10T05:22:14.057Z,63.70
2018-07-10T05:24:41.284Z,63.70
2018-07-10T05:27:08.821Z,63.10
2018-07-10T05:29:36.048Z,62.80
2018-07-10T05:32:03.565Z,63.20
2018-07-10T05:34:32.937Z,62.90
2018-07-10T05:37:00.144Z,62.40
2018-07-10T05:39:29.135Z,62.40
2018-07-10T05:41:56.353Z,62.60
2018-07-10T05:44:23.615Z,62.40
2018-07-10T05:46:51.186Z,62.20
2018-07-10T05:49:18.442Z,62.30
2018-07-10T05:51:48.097Z,62.60
2018-07-10T05:54:15.569Z,62.20
2018-07-10T05:56:42.800Z,63.10
2018-07-10T05:59:10.022Z,62.60
2018-07-10T06:01:38.422Z,62.50
2018-07-10T06:04:07.845Z,62.50
2018-07-10T06:06:35.084Z,63.10
2018-07-10T06:09:03.062Z,63.40
2018-07-10T06:11:30.257Z,63.20
2018-07-10T06:13:57.510Z,63.50
2018-07-10T06:16:24.704Z,64.10
2018-07-10T06:18:53.589Z,64.10
2018-07-10T06:21:21.860Z,65.70
2018-07-10T06:23:49.095Z,65.60
2018-07-10T06:26:16.325Z,65.30
2018-07-10T06:28:49.666Z,64.80
2018-07-10T06:31:19.830Z,65.20
2018-07-10T06:33:55.419Z,64.30
2018-07-10T06:36:24.822Z,64.80
2018-07-10T06:38:52.872Z,64.50
2018-07-10T06:41:20.061Z,64.40
2018-07-10T06:43:51.441Z,64.90
2018-07-10T06:46:31.393Z,64.40
2018-07-10T06:49:07.675Z,65.00
2018-07-10T06:51:36.094Z,65.10
2018-07-10T06:54:03.380Z,64.40
2018-07-10T06:56:30.608Z,63.80
2018-07-10T06:58:58.064Z,63.10
2018-07-10T07:01:25.417Z,62.90
2018-07-10T07:03:55.565Z,63.20
2018-07-10T07:06:23.081Z,62.20
2018-07-10T07:08:50.597Z,61.00
2018-07-10T07:11:17.921Z,60.50
2018-07-10T07:13:45.153Z,60.20
2018-07-10T07:16:12.438Z,59.90
2018-07-10T07:18:39.748Z,60.80
2018-07-10T07:21:07.065Z,61.20
2018-07-10T07:23:34.349Z,61.50
2018-07-10T07:26:01.630Z,61.40
2018-07-10T07:28:28.871Z,61.70
2018-07-10T07:30:56.506Z,61.60
2018-07-10T07:33:23.780Z,61.40
2018-07-10T07:35:51.077Z,61.50
2018-07-10T07:38:18.344Z,61.50
2018-07-10T07:40:45.617Z,60.70
2018-07-10T07:43:12.865Z,61.10
2018-07-10T07:45:40.173Z,61.50
2018-07-10T07:48:07.473Z,61.10
2018-07-10T07:50:35.129Z,61.60
2018-07-10T07:53:02.445Z,61.50
2018-07-10T07:55:30.480Z,61.70
2018-07-10T07:57:57.797Z,61.00
2018-07-10T08:00:25.084Z,61.10
2018-07-10T08:02:52.321Z,61.40
2018-07-10T08:05:19.605Z,61.30
2018-07-10T08:07:46.969Z,60.60
2018-07-10T08:10:14.259Z,59.80
2018-07-10T08:12:41.489Z,59.00
2018-07-10T08:15:08.765Z,58.60
2018-07-10T08:17:36.365Z,57.90
2018-07-10T08:20:04.561Z,58.00
2018-07-10T08:22:31.850Z,58.00
2018-07-10T08:24:59.170Z,56.90
2018-07-10T08:27:26.545Z,58.20
2018-07-10T08:29:54.537Z,56.70
2018-07-10T08:32:21.861Z,55.60
2018-07-10T08:34:49.098Z,55.00
2018-07-10T08:37:16.357Z,56.80
2018-07-10T08:39:43.586Z,57.00
2018-07-10T08:42:10.829Z,55.20
2018-07-10T08:44:38.069Z,54.80
2018-07-10T08:47:07.185Z,54.40
2018-07-10T08:49:35.878Z,53.30
2018-07-10T08:52:04.526Z,54.10
2018-07-10T08:54:31.869Z,52.50
2018-07-10T08:56:59.328Z,53.30
2018-07-10T08:59:26.641Z,53.90
2018-07-10T09:01:53.969Z,54.40
2018-07-10T09:04:21.229Z,54.60
2018-07-10T09:06:48.461Z,54.50
2018-07-10T09:09:16.197Z,53.00
2018-07-10T09:11:43.790Z,52.70
2018-07-10T09:14:11.349Z,51.00
2018-07-10T09:16:38.720Z,51.60
2018-07-10T09:19:07.816Z,50.40
2018-07-10T09:21:35.063Z,52.50
2018-07-10T09:24:02.682Z,51.10
2018-07-10T09:26:29.917Z,48.90
2018-07-10T09:28:57.133Z,47.10
2018-07-10T09:31:24.425Z,47.90
2018-07-10T09:33:51.662Z,47.70
2018-07-10T09:36:18.889Z,45.50
2018-07-10T09:38:46.105Z,47.50
2018-07-10T09:41:13.432Z,49.50
2018-07-10T09:43:43.037Z,49.00
2018-07-10T09:46:10.265Z,48.30
2018-07-10T09:48:37.480Z,49.90
2018-07-10T09:51:04.696Z,49.80
2018-07-10T09:53:31.917Z,48.80
2018-07-10T09:58:26.364Z,48.20
2018-07-10T10:01:00.725Z,46.60
2018-07-10T10:03:27.941Z,45.60
2018-07-10T10:05:55.791Z,46.00
2018-07-10T10:08:23.040Z,42.40
2018-07-10T10:10:50.237Z,42.50
2018-07-10T10:13:17.509Z,41.90
2018-07-10T10:15:44.746Z,42.20
2018-07-10T10:18:12.090Z,44.40
2018-07-10T10:20:41.033Z,44.80
2018-07-10T10:23:09.585Z,44.30
2018-07-10T10:25:38.631Z,43.70
2018-07-10T10:28:07.174Z,45.50
2018-07-10T10:30:35.517Z,43.40
2018-07-10T10:33:02.729Z,44.30
2018-07-10T10:35:30.073Z,45.10
2018-07-10T10:37:57.385Z,43.00
2018-07-10T10:40:24.612Z,45.80
2018-07-10T10:45:19.158Z,41.60
2018-07-10T10:47:46.674Z,41.00
2018-07-10T10:50:13.917Z,40.70
2018-07-10T10:52:41.716Z,40.70
2018-07-10T10:55:08.929Z,41.60
2018-07-10T10:57:36.862Z,43.60
2018-07-10T11:00:04.624Z,39.40
2018-07-10T11:02:31.888Z,39.60
2018-07-10T11:04:59.670Z,41.00
2018-07-10T11:07:28.077Z,41.80
2018-07-10T11:09:55.392Z,41.50
2018-07-10T11:12:22.804Z,43.20
2018-07-10T11:14:50.196Z,39.70
2018-07-10T11:17:26.809Z,41.50
2018-07-10T11:20:05.689Z,40.90
2018-07-10T11:22:38.593Z,41.50
2018-07-10T11:25:07.081Z,41.00
2018-07-10T11:28:09.381Z,41.90
2018-07-10T11:30:37.081Z,44.30
2018-07-10T11:33:05.445Z,42.00
2018-07-10T11:35:33.421Z,42.70
2018-07-10T11:38:09.502Z,40.70
2018-07-10T11:40:38.101Z,40.40
2018-07-10T11:43:07.100Z,41.90
2018-07-10T11:45:34.593Z,40.70
2018-07-10T11:48:01.906Z,39.70
2018-07-10T11:50:29.169Z,41.40
2018-07-10T11:52:56.403Z,41.90
2018-07-10T11:55:23.601Z,37.80
2018-07-10T11:57:50.837Z,41.70
2018-07-10T12:00:18.873Z,39.50
2018-07-10T12:02:47.269Z,41.30
2018-07-10T12:05:17.404Z,42.00
2018-07-10T12:07:55.493Z,41.90
2018-07-10T12:10:27.378Z,42.20
2018-07-10T12:12:54.773Z,38.90
2018-07-10T12:15:22.237Z,39.90
2018-07-10T12:17:51.815Z,39.80
2018-07-10T12:20:21.365Z,41.10
2018-07-10T12:22:48.597Z,44.00
2018-07-10T12:25:16.009Z,44.10
2018-07-10T12:27:43.330Z,43.40
2018-07-10T12:30:10.582Z,42.10
2018-07-10T12:32:38.921Z,42.30
2018-07-10T12:35:07.311Z,42.90
2018-07-10T12:37:36.501Z,43.20
2018-07-10T12:40:03.730Z,43.20
2018-07-10T12:42:31.096Z,41.90
2018-07-10T12:44:58.373Z,41.50
2018-07-10T12:47:25.640Z,42.00
2018-07-10T12:49:53.105Z,39.50
2018-07-10T12:52:20.329Z,38.00
2018-07-10T12:54:47.972Z,36.20
2018-07-10T12:57:15.354Z,34.80
2018-07-10T12:59:42.685Z,37.70
2018-07-10T13:02:10.112Z,34.60
2018-07-10T13:04:37.965Z,37.50
2018-07-10T13:07:05.301Z,40.20
2018-07-10T13:09:32.553Z,39.10
2018-07-10T13:11:59.781Z,39.10
2018-07-10T13:14:27.101Z,41.00
2018-07-10T13:16:54.461Z,41.10
2018-07-10T13:19:21.725Z,39.70
2018-07-10T13:21:48.924Z,39.60
2018-07-10T13:24:16.337Z,39.70
2018-07-10T13:26:50.477Z,38.70
2018-07-10T13:29:17.896Z,38.10
2018-07-10T13:31:45.141Z,37.70
2018-07-10T13:34:12.385Z,37.10
2018-07-10T13:36:39.617Z,36.90
2018-07-10T13:39:06.886Z,36.10
2018-07-10T13:41:34.668Z,40.10
2018-07-10T13:44:02.176Z,36.90
2018-07-10T13:46:29.398Z,36.30
2018-07-10T13:48:56.634Z,37.10
2018-07-10T13:51:23.869Z,36.70
2018-07-10T13:53:51.089Z,35.30
2018-07-10T13:56:18.278Z,35.60
2018-07-10T13:58:45.488Z,35.90
2018-07-10T14:03:40.017Z,35.60
2018-07-10T14:06:07.412Z,37.60
2018-07-10T14:08:34.648Z,38.90
2018-07-10T14:11:02.022Z,40.90
2018-07-10T14:13:29.285Z,38.60
2018-07-10T14:15:56.741Z,37.40
2018-07-10T14:18:24.273Z,35.50
2018-07-10T14:20:52.500Z,36.20
2018-07-10T14:23:19.964Z,36.70
2018-07-10T14:25:47.663Z,38.40
2018-07-10T14:28:14.885Z,37.40
2018-07-10T14:30:42.266Z,36.50
2018-07-10T14:33:09.508Z,39.40
2018-07-10T14:35:36.925Z,37.60
2018-07-10T14:38:05.522Z,36.40
2018-07-10T14:40:35.656Z,36.80
2018-07-10T14:43:03.149Z,37.30
2018-07-10T14:45:30.981Z,37.00
2018-07-10T14:47:58.673Z,36.10
2018-07-10T14:50:26.557Z,38.00
2018-07-10T14:52:53.971Z,36.40
2018-07-10T14:55:21.240Z,38.60
2018-07-10T14:57:48.497Z,37.00
2018-07-10T15:00:15.752Z,36.00
2018-07-10T15:05:10.274Z,39.80
2018-07-10T15:10:04.812Z,36.60
2018-07-10T15:14:59.400Z,37.90
2018-07-10T15:17:32.269Z,37.90
2018-07-10T15:20:00.881Z,37.70
2018-07-10T15:22:28.105Z,39.10
2018-07-10T15:24:55.317Z,38.80
2018-07-10T15:27:22.689Z,40.40
2018-07-10T15:29:49.944Z,41.90
2018-07-10T15:32:17.377Z,40.30
2018-07-10T15:34:44.621Z,40.20
2018-07-10T15:37:11.973Z,39.70
2018-07-10T15:39:39.301Z,41.00
2018-07-10T15:42:06.645Z,42.40
2018-07-10T15:44:33.836Z,41.80
2018-07-10T15:47:01.145Z,41.60
2018-07-10T15:49:28.352Z,40.80
2018-07-10T15:51:55.569Z,40.60
2018-07-10T15:54:22.853Z,41.30
2018-07-10T15:56:50.108Z,41.40
2018-07-10T16:01:44.521Z,42.30
2018-07-10T16:04:11.731Z,42.70
2018-07-10T16:06:39.225Z,42.70
2018-07-10T16:09:15.414Z,41.20
2018-07-10T16:11:42.803Z,40.90
2018-07-10T16:14:10.042Z,40.00
2018-07-10T16:16:37.264Z,42.50
2018-07-10T16:19:06.313Z,41.10
2018-07-10T16:21:41.456Z,41.40
2018-07-10T16:24:08.816Z,41.60
2018-07-10T16:26:36.089Z,41.50
2018-07-10T16:29:06.508Z,42.80
2018-07-10T16:31:33.758Z,43.00
2018-07-10T16:34:00.997Z,42.00
2018-07-10T16:36:28.213Z,42.10
2018-07-10T16:38:55.445Z,44.30
2018-07-10T16:41:28.496Z,43.40
2018-07-10T16:43:56.576Z,43.40
2018-07-10T16:46:25.734Z,42.40
2018-07-10T16:48:57.751Z,42.80
2018-07-10T16:51:30.136Z,43.40
2018-07-10T16:53:59.367Z,44.00
2018-07-10T16:56:26.697Z,44.10
2018-07-10T16:58:55.018Z,43.70
2018-07-10T17:01:23.397Z,42.50
2018-07-10T17:03:51.169Z,42.30
2018-07-10T17:06:19.052Z,43.10
2018-07-10T17:08:46.306Z,42.80
2018-07-10T17:11:13.533Z,43.50
2018-07-10T17:13:40.788Z,43.20
2018-07-10T17:18:35.205Z,43.50
2018-07-10T17:21:02.433Z,44.30
2018-07-10T17:23:29.750Z,43.60
2018-07-10T17:25:56.965Z,44.20
2018-07-10T17:28:24.173Z,44.70
2018-07-10T17:30:51.397Z,46.50
2018-07-10T17:33:18.721Z,44.00
2018-07-10T17:35:45.953Z,44.90
2018-07-10T17:38:13.252Z,44.50
2018-07-10T17:40:40.637Z,43.90
2018-07-10T17:43:07.861Z,44.40
2018-07-10T17:45:35.180Z,44.60
2018-07-10T17:48:02.406Z,44.50
2018-07-10T17:50:29.681Z,43.90
2018-07-10T17:52:56.897Z,43.90
2018-07-10T17:55:24.125Z,44.50
2018-07-10T17:58:08.050Z,43.90
2018-07-10T18:00:35.616Z,44.30
2018-07-10T18:03:02.828Z,44.00
2018-07-10T18:05:30.099Z,43.80
2018-07-10T18:07:57.318Z,44.50
2018-07-10T18:10:24.964Z,44.90
2018-07-10T18:12:52.312Z,44.80
2018-07-10T18:15:19.648Z,46.30
2018-07-10T18:17:46.880Z,45.70
2018-07-10T18:20:14.225Z,45.90
2018-07-10T18:22:41.575Z,45.00
2018-07-10T18:25:08.819Z,45.30
2018-07-10T18:27:36.213Z,45.40
2018-07-10T18:30:03.541Z,46.80
2018-07-10T18:32:30.804Z,46.10
2018-07-10T18:34:58.021Z,45.80
2018-07-10T18:37:25.336Z,45.10
2018-07-10T18:39:52.616Z,45.20
2018-07-10T18:42:19.983Z,45.90
2018-07-10T18:44:47.054Z,46.50
2018-07-10T18:47:14.289Z,46.70
2018-07-10T18:49:41.516Z,47.50
2018-07-10T18:52:08.751Z,47.30
2018-07-10T18:54:37.253Z,46.80
2018-07-10T18:58:11.429Z,47.10
2018-07-10T19:00:49.665Z,47.70
2018-07-10T19:03:16.932Z,47.50
2018-07-10T19:05:46.902Z,47.80
2018-07-10T19:10:48.257Z,48.00
2018-07-10T19:13:16.550Z,48.60
2018-07-10T19:18:11.697Z,48.60
2018-07-10T19:20:41.361Z,48.90
2018-07-10T19:23:18.863Z,48.60
2018-07-10T19:25:46.101Z,48.70
2018-07-10T19:28:13.353Z,48.80
2018-07-10T19:30:49.281Z,49.00
2018-07-10T19:33:16.669Z,49.40
2018-07-10T19:35:43.857Z,50.30
2018-07-10T19:38:11.347Z,50.00
2018-07-10T19:40:38.712Z,50.20
2018-07-10T19:43:05.975Z,51.00
2018-07-10T19:45:33.165Z,50.10
2018-07-10T19:48:00.613Z,50.20
2018-07-10T19:50:31.784Z,51.70
2018-07-10T19:52:59.105Z,51.00
2018-07-10T19:55:27.436Z,51.00
2018-07-10T19:58:03.533Z,50.80
2018-07-10T20:00:37.428Z,50.60
2018-07-10T20:03:04.656Z,51.60
2018-07-10T20:05:31.869Z,51.00
2018-07-10T20:08:04.772Z,51.10
2018-07-10T20:10:35.126Z,51.10
2018-07-10T20:13:11.302Z,50.80
2018-07-10T20:15:43.545Z,51.50
2018-07-10T20:18:20.656Z,51.30
2018-07-10T20:20:58.541Z,52.40
2018-07-10T20:23:49.285Z,54.80
2018-07-10T20:26:29.795Z,53.70
2018-07-10T20:29:09.576Z,53.20
2018-07-10T20:31:42.004Z,55.30
2018-07-10T20:34:17.037Z,57.10
2018-07-10T20:36:49.744Z,56.50
2018-07-10T20:39:16.954Z,56.60
2018-07-10T20:41:45.964Z,58.50
2018-07-10T20:44:15.602Z,61.60
2018-07-10T20:46:50.239Z,62.40
2018-07-10T20:49:18.661Z,64.40
2018-07-10T20:52:04.761Z,66.40
2018-07-10T20:54:45.897Z,68.20
2018-07-10T20:57:49.877Z,68.90
2018-07-10T21:00:17.097Z,69.50
2018-07-10T21:03:54.061Z,70.80
2018-07-10T21:06:31.208Z,70.20
2018-07-10T21:09:08.289Z,70.40
2018-07-10T21:12:01.016Z,70.50
2018-07-10T21:14:43.582Z,70.10
2018-07-10T21:17:14.089Z,70.00
2018-07-10T21:19:55.392Z,71.10
2018-07-10T21:22:36.032Z,72.00
2018-07-10T21:25:06.908Z,72.10
2018-07-10T21:27:43.325Z,72.50
2018-07-10T21:32:54.026Z,73.20
2018-07-10T21:35:22.033Z,72.20
2018-07-10T21:38:11.781Z,72.50
2018-07-10T21:41:59.261Z,72.10
2018-07-10T21:44:40.787Z,72.00
2018-07-10T21:47:15.939Z,70.40
2018-07-10T21:49:47.109Z,69.10
2018-07-10T21:52:14.325Z,69.60
2018-07-10T21:54:41.571Z,67.70
2018-07-10T21:57:11.684Z,66.80
2018-07-10T21:59:43.002Z,68.10
2018-07-10T22:02:10.293Z,67.50
2018-07-10T22:04:38.213Z,68.40
2018-07-10T22:07:08.153Z,67.20
2018-07-10T22:09:35.701Z,68.00
2018-07-10T22:12:06.250Z,67.00
2018-07-10T22:14:33.753Z,67.00
2018-07-10T22:17:02.538Z,66.60
2018-07-10T22:19:30.617Z,66.20
2018-07-10T22:21:57.836Z,65.50
2018-07-10T22:24:26.373Z,64.80
2018-07-10T22:26:55.517Z,64.50
2018-07-10T22:29:28.444Z,65.70
2018-07-10T22:31:58.478Z,66.00
2018-07-10T22:34:26.452Z,67.70
2018-07-10T22:36:54.149Z,68.40
2018-07-10T22:39:21.388Z,69.40
2018-07-10T22:41:49.064Z,69.00
2018-07-10T22:44:16.260Z,69.10
2018-07-10T22:46:43.497Z,69.10
2018-07-10T22:49:12.804Z,69.10
2018-07-10T22:51:40.026Z,69.00
2018-07-10T22:54:07.258Z,70.40
2018-07-10T22:56:34.641Z,70.20
2018-07-10T22:59:02.406Z,70.60
2018-07-10T23:01:30.593Z,70.60
2018-07-10T23:03:57.806Z,70.30
2018-07-10T23:06:25.060Z,70.50
2018-07-10T23:08:52.676Z,70.60
2018-07-10T23:11:19.913Z,70.00
2018-07-10T23:13:47.531Z,69.40
2018-07-10T23:16:14.762Z,69.60
2018-07-10T23:18:43.504Z,70.50
2018-07-10T23:21:12.091Z,70.80
2018-07-10T23:23:39.305Z,69.80
2018-07-10T23:26:06.733Z,70.20
2018-07-10T23:28:33.958Z,70.20
2018-07-10T23:31:02.784Z,69.70
2018-07-10T23:33:30.014Z,70.70
2018-07-10T23:35:58.153Z,70.40
2018-07-10T23:38:42.320Z,70.70
2018-07-10T23:41:17.137Z,71.30
2018-07-10T23:43:46.747Z,71.10
2018-07-10T23:46:20.175Z,71.40
2018-07-10T23:48:48.058Z,71.50
2018-07-10T23:51:15.295Z,70.80
2018-07-10T23:53:47.030Z,70.40
2018-07-10T23:56:14.572Z,71.40
2018-07-10T23:58:41.788Z,72.00
